Time;durP1;ratioP1;P1;durP2;ratioP2;P2;SDS_P1;SDS_P2;PMS_P1;PMS_P2;Temp;Humidity;BMP_temperature;BMP_pressure;BME280_temperature;BME280_humidity;BME280_pressure;Samples;Min_cycle;Max_cycle;Signal;HPM_P1;HPM_P2
2023/08/17 00:02:13;;;;;;;1.25;1.08;;;;;;;24.61;48.83;99620.56;5061195;28;20063;-86
2023/08/17 00:04:39;;;;;;;1.65;1.13;;;;;;;24.81;48.16;99618.19;5070105;28;20059;-88
2023/08/17 00:07:04;;;;;;;0.22;0.22;;;;;;;24.88;48.37;99632.94;5071762;28;20032;-86
2023/08/17 00:09:30;;;;;;;0.75;0.65;;;;;;;24.78;48.80;99627.38;5072033;28;20082;-86
2023/08/17 00:11:55;;;;;;;2.83;1.33;;;;;;;24.62;48.72;99627.69;5069961;28;20147;-86
2023/08/17 00:14:21;;;;;;;1.75;1.00;;;;;;;24.44;48.65;99602.06;5051930;28;20044;-86
2023/08/17 00:16:47;;;;;;;1.00;0.68;;;;;;;24.65;48.86;99648.13;5069508;28;20132;-87
2023/08/17 00:19:12;;;;;;;1.00;0.90;;;;;;;24.35;49.29;99627.00;5070740;28;20036;-86
2023/08/17 00:21:38;;;;;;;1.60;0.98;;;;;;;24.28;49.59;99618.47;5071910;28;20111;-86
2023/08/17 00:24:04;;;;;;;0.77;0.75;;;;;;;24.37;49.02;99614.25;5052986;28;20040;-87
2023/08/17 00:26:29;;;;;;;1.75;1.02;;;;;;;24.38;48.82;99591.72;5067505;28;20025;-88
2023/08/17 00:28:55;;;;;;;1.58;0.75;;;;;;;24.45;49.06;99609.16;5051835;28;20099;-87
2023/08/17 00:31:20;;;;;;;0.90;0.75;;;;;;;24.30;49.24;99606.63;5051863;28;20463;-87
2023/08/17 00:33:46;;;;;;;0.40;0.40;;;;;;;24.34;49.20;99618.03;5066948;28;20486;-87
2023/08/17 00:36:11;;;;;;;1.23;0.52;;;;;;;24.08;49.16;99588.47;5071453;28;20040;-89
2023/08/17 00:38:37;;;;;;;1.20;0.80;;;;;;;24.27;49.26;99622.16;5070912;28;20104;-88
2023/08/17 00:41:02;;;;;;;1.00;0.85;;;;;;;23.98;49.49;99595.50;5069313;28;20490;-89
2023/08/17 00:43:29;;;;;;;1.42;0.57;;;;;;;24.32;49.66;99638.84;5070978;28;20505;-89
2023/08/17 00:45:55;;;;;;;1.25;0.60;;;;;;;23.80;50.36;99623.72;5062926;28;20039;-88
2023/08/17 00:48:21;;;;;;;1.45;1.08;;;;;;;23.18;51.44;99585.81;5070121;28;20028;-88
2023/08/17 00:50:49;;;;;;;0.63;0.50;;;;;;;23.83;50.32;99608.19;5053753;28;20528;-88
2023/08/17 00:53:16;;;;;;;1.17;1.02;;;;;;;23.51;50.98;99605.09;5069871;28;20443;-87
2023/08/17 00:55:42;;;;;;;1.98;0.82;;;;;;;23.59;51.17;99614.34;5070377;28;20479;-87
2023/08/17 00:58:08;;;;;;;1.63;0.82;;;;;;;23.45;52.06;99581.28;5068508;28;20068;-87
2023/08/17 01:00:33;;;;;;;3.17;1.00;;;;;;;23.56;53.11;99613.72;5070269;28;20067;-88
2023/08/17 01:02:59;;;;;;;1.08;0.70;;;;;;;23.78;53.13;99638.16;5071153;28;20467;-89
2023/08/17 01:05:25;;;;;;;0.98;0.68;;;;;;;23.81;52.76;99642.47;5052477;28;20039;-87
2023/08/17 01:07:50;;;;;;;0.50;0.50;;;;;;;23.51;53.11;99594.31;5070908;28;20060;-87
2023/08/17 01:10:16;;;;;;;0.75;0.75;;;;;;;23.69;53.24;99605.63;5068784;28;20036;-87
2023/08/17 01:13:05;;;;;;;4.45;1.60;;;;;;;23.86;53.48;99642.16;5061670;28;20037;-87
2023/08/17 01:15:37;;;;;;;1.52;1.00;;;;;;;23.74;53.71;99644.75;5058579;28;20024;-88
2023/08/17 01:18:26;;;;;;;1.90;1.35;;;;;;;23.60;54.11;99628.66;5032935;28;20029;-88
2023/08/17 01:20:53;;;;;;;4.78;1.48;;;;;;;23.41;54.52;99611.13;5051006;28;20033;-88
2023/08/17 01:23:19;;;;;;;3.95;1.17;;;;;;;23.50;54.19;99615.00;5051064;28;20566;-86
2023/08/17 01:25:45;;;;;;;2.50;0.75;;;;;;;23.51;54.40;99616.75;5059343;28;20107;-87
2023/08/17 01:28:10;;;;;;;5.25;1.15;;;;;;;23.40;54.71;99609.41;5070313;28;20121;-88
2023/08/17 01:30:55;;;;;;;1.13;0.93;;;;;;;23.56;54.55;99627.19;5070192;28;20074;-88
2023/08/17 01:33:29;;;;;;;1.42;0.63;;;;;;;23.17;54.78;99572.47;5049786;28;20835;-87
2023/08/17 01:36:05;;;;;;;1.23;0.98;;;;;;;23.15;56.05;99639.81;5060752;28;20071;-89
2023/08/17 01:38:32;;;;;;;3.63;1.13;;;;;;;23.20;56.46;99631.44;5069884;28;20064;-88
2023/08/17 01:41:00;;;;;;;1.88;1.13;;;;;;;23.06;56.55;99618.91;5069318;28;20033;-89
2023/08/17 01:43:27;;;;;;;5.28;1.73;;;;;;;22.85;57.12;99614.03;5069792;28;20502;-89
2023/08/17 01:45:52;;;;;;;1.67;0.88;;;;;;;23.01;57.00;99619.22;5070344;28;20420;-89
2023/08/17 01:48:19;;;;;;;2.15;1.42;;;;;;;23.15;57.18;99655.97;5068609;28;20039;-85
2023/08/17 01:50:44;;;;;;;1.77;1.35;;;;;;;23.01;57.84;99638.03;5070198;28;20037;-86
2023/08/17 01:53:11;;;;;;;2.40;0.95;;;;;;;22.69;59.33;99640.19;5070331;28;20031;-88
2023/08/17 01:55:38;;;;;;;2.90;1.73;;;;;;;22.59;59.53;99644.47;5070139;28;20150;-87
2023/08/17 01:58:03;;;;;;;1.00;0.90;;;;;;;22.37;60.32;99616.31;5068025;28;20038;-87
2023/08/17 02:00:29;;;;;;;2.92;2.03;;;;;;;22.26;60.93;99605.34;5070036;28;20425;-87
2023/08/17 02:02:54;;;;;;;1.45;0.90;;;;;;;22.25;61.39;99595.59;5069595;28;20142;-88
2023/08/17 02:05:20;;;;;;;3.38;1.75;;;;;;;22.28;61.71;99606.13;5055630;28;20087;-88
2023/08/17 02:07:45;;;;;;;1.55;1.45;;;;;;;22.21;61.84;99586.00;5050002;28;20120;-87
2023/08/17 02:10:11;;;;;;;2.85;1.55;;;;;;;22.12;62.60;99596.38;5050067;28;20051;-87
2023/08/17 02:12:36;;;;;;;1.98;1.42;;;;;;;22.36;62.52;99601.16;5050670;28;20115;-87
2023/08/17 02:15:02;;;;;;;5.38;2.78;;;;;;;22.28;62.60;99607.00;5051145;28;20470;-87
2023/08/17 02:17:28;;;;;;;1.95;1.67;;;;;;;22.47;61.90;99624.63;5014285;28;20046;-87
2023/08/17 02:19:54;;;;;;;3.65;1.58;;;;;;;22.26;62.11;99635.78;5040503;28;20158;-86
2023/08/17 02:22:19;;;;;;;3.90;2.63;;;;;;;22.24;61.45;99642.22;5049987;28;20049;-89
2023/08/17 02:24:46;;;;;;;2.00;0.95;;;;;;;22.05;60.36;99618.38;5049901;28;20033;-87
2023/08/17 02:27:11;;;;;;;4.22;2.30;;;;;;;21.94;59.90;99619.03;5049765;28;20029;-87
2023/08/17 02:29:37;;;;;;;1.67;1.08;;;;;;;21.93;59.42;99631.59;5031495;28;20044;-86
2023/08/17 02:32:03;;;;;;;2.97;1.10;;;;;;;21.94;59.65;99654.81;5049781;28;20064;-87
2023/08/17 02:34:28;;;;;;;3.88;2.00;;;;;;;21.88;60.02;99635.53;5050150;28;20029;-87
2023/08/17 02:36:54;;;;;;;1.88;1.30;;;;;;;21.86;59.57;99638.31;5037798;28;20447;-88
2023/08/17 02:39:19;;;;;;;3.17;0.88;;;;;;;21.51;59.87;99611.00;5029851;28;20030;-87
2023/08/17 02:41:45;;;;;;;2.85;2.03;;;;;;;21.69;59.84;99615.22;5013096;28;20044;-87
2023/08/17 02:44:10;;;;;;;2.17;1.48;;;;;;;22.01;58.93;99623.03;5015238;28;20037;-87
2023/08/17 02:46:36;;;;;;;1.55;1.05;;;;;;;21.72;59.25;99603.41;5048101;28;20087;-87
2023/08/17 02:49:02;;;;;;;1.05;0.95;;;;;;;21.89;59.22;99627.38;5053414;28;20415;-87
2023/08/17 02:51:27;;;;;;;4.60;2.30;;;;;;;21.96;59.17;99626.03;5053231;28;20107;-86
2023/08/17 02:53:53;;;;;;;2.13;1.25;;;;;;;22.02;59.22;99640.91;5053526;28;20378;-87
2023/08/17 02:56:18;;;;;;;3.47;1.45;;;;;;;22.02;59.17;99632.84;5053705;28;20029;-86
2023/08/17 02:58:44;;;;;;;1.95;0.93;;;;;;;21.70;58.95;99605.34;5051044;28;20464;-86
2023/08/17 03:01:10;;;;;;;1.15;1.05;;;;;;;21.74;59.03;99621.16;5047300;28;20112;-85
2023/08/17 03:03:35;;;;;;;2.53;1.85;;;;;;;21.80;59.60;99642.25;5033676;28;20041;-85
2023/08/17 03:06:02;;;;;;;3.28;1.67;;;;;;;21.96;59.48;99660.94;5032970;28;20017;-85
2023/08/17 03:08:28;;;;;;;1.45;0.95;;;;;;;21.69;59.21;99607.16;5033213;28;20064;-86
2023/08/17 03:10:53;;;;;;;1.60;1.20;;;;;;;21.82;59.04;99631.41;5032876;28;20432;-85
2023/08/17 03:13:19;;;;;;;3.88;2.88;;;;;;;21.84;59.28;99637.53;5033844;28;20033;-85
2023/08/17 03:15:44;;;;;;;2.05;1.45;;;;;;;21.83;59.11;99633.16;5036108;28;20049;-85
2023/08/17 03:18:10;;;;;;;7.20;2.00;;;;;;;21.71;59.31;99632.09;5056595;28;20036;-86
2023/08/17 03:20:36;;;;;;;4.13;2.40;;;;;;;21.68;59.35;99618.00;5070591;28;20047;-87
2023/08/17 03:23:01;;;;;;;1.90;1.38;;;;;;;21.83;59.61;99651.94;5072974;28;20028;-86
2023/08/17 03:25:26;;;;;;;0.43;0.43;;;;;;;21.63;60.08;99634.38;5054179;28;20051;-86
2023/08/17 03:27:53;;;;;;;6.50;1.63;;;;;;;21.65;59.88;99637.81;5072874;28;20031;-86
2023/08/17 03:30:19;;;;;;;1.77;1.20;;;;;;;21.84;59.93;99672.44;5070617;28;20028;-86
2023/08/17 03:32:44;;;;;;;3.30;1.35;;;;;;;21.66;59.86;99646.72;5055811;28;20032;-87
2023/08/17 03:35:10;;;;;;;1.55;0.98;;;;;;;21.84;59.86;99664.38;5053231;28;20435;-86
2023/08/17 03:37:35;;;;;;;3.15;2.15;;;;;;;21.85;59.95;99676.00;5069110;28;20135;-86
2023/08/17 03:40:01;;;;;;;2.97;2.30;;;;;;;21.66;60.05;99669.09;5047622;28;20123;-86
2023/08/17 03:42:27;;;;;;;3.33;2.28;;;;;;;21.60;59.97;99659.59;5071928;28;20031;-87
2023/08/17 03:44:52;;;;;;;2.55;1.83;;;;;;;21.56;60.58;99651.81;5072320;28;20028;-87
2023/08/17 03:47:19;;;;;;;3.55;2.60;;;;;;;21.46;60.52;99649.66;5072451;28;20097;-88
2023/08/17 03:49:46;;;;;;;6.57;2.22;;;;;;;21.44;60.64;99640.84;5070977;28;20029;-88
2023/08/17 03:52:11;;;;;;;6.68;2.50;;;;;;;21.53;60.59;99644.81;5070914;28;20555;-89
2023/08/17 03:54:37;;;;;;;3.70;2.03;;;;;;;21.67;60.63;99659.22;5071900;28;20134;-87
2023/08/17 03:57:02;;;;;;;3.65;1.20;;;;;;;21.60;60.87;99640.81;5066747;28;20131;-87
2023/08/17 03:59:28;;;;;;;2.20;1.92;;;;;;;21.64;60.58;99628.94;5052775;28;20195;-87
2023/08/17 04:01:53;;;;;;;4.22;1.65;;;;;;;21.58;60.74;99612.31;5052316;28;20487;-88
2023/08/17 04:04:19;;;;;;;1.88;1.30;;;;;;;21.70;60.67;99627.66;5051803;28;20140;-88
2023/08/17 04:06:45;;;;;;;5.93;1.80;;;;;;;21.78;60.82;99654.91;5018577;28;20033;-90
2023/08/17 04:09:10;;;;;;;3.42;1.92;;;;;;;21.98;60.78;99679.63;5051639;28;20017;-90
2023/08/17 04:11:39;;;;;;;1.65;1.33;;;;;;;21.86;61.06;99646.38;5052063;28;20086;-89
2023/08/17 04:14:04;;;;;;;8.40;1.08;;;;;;;21.94;60.75;99651.28;5051565;28;20033;-88
2023/08/17 04:16:30;;;;;;;2.28;1.85;;;;;;;21.89;60.82;99615.78;5051571;28;20079;-89
2023/08/17 04:18:55;;;;;;;6.40;1.45;;;;;;;22.26;60.68;99659.09;5060384;28;20368;-92
2023/08/17 04:21:21;;;;;;;2.00;1.10;;;;;;;22.11;60.67;99617.97;5037771;28;20028;-92
2023/08/17 04:23:47;;;;;;;1.77;1.15;;;;;;;22.25;59.40;99615.25;5071709;28;20040;-92
2023/08/17 04:26:15;;;;;;;5.57;2.92;;;;;;;22.32;60.36;99643.47;5071102;28;20040;-91
2023/08/17 04:28:42;;;;;;;3.45;1.40;;;;;;;22.22;60.43;99623.50;5061589;28;20029;-94
2023/08/17 04:31:08;;;;;;;2.20;1.48;;;;;;;22.51;60.17;99639.59;5051833;28;20456;-93
2023/08/17 04:33:33;;;;;;;3.85;1.58;;;;;;;22.62;59.74;99633.53;5071485;28;20016;-91
2023/08/17 04:36:00;;;;;;;2.08;1.50;;;;;;;22.71;59.47;99633.75;5071527;28;20024;-91
2023/08/17 04:38:26;;;;;;;2.65;2.20;;;;;;;22.67;58.98;99624.16;5054083;28;20035;-89
2023/08/17 04:40:52;;;;;;;1.75;1.60;;;;;;;22.76;58.32;99619.16;5071256;28;20111;-90
2023/08/17 04:43:17;;;;;;;2.25;1.50;;;;;;;23.02;58.33;99660.44;5072088;28;20040;-90
2023/08/17 04:45:44;;;;;;;1.77;1.40;;;;;;;22.99;58.44;99655.28;5053270;28;20067;-90
2023/08/17 04:48:09;;;;;;;3.50;2.45;;;;;;;23.28;58.02;99663.19;5068830;28;20059;-88
2023/08/17 04:50:36;;;;;;;5.05;1.45;;;;;;;23.23;57.75;99645.56;5065155;28;20021;-91
2023/08/17 04:53:02;;;;;;;3.53;1.55;;;;;;;23.06;57.29;99633.22;5044216;28;20056;-91
2023/08/17 04:55:28;;;;;;;2.45;1.63;;;;;;;23.31;57.54;99652.22;5069176;28;20166;-92
2023/08/17 04:57:53;;;;;;;3.08;1.85;;;;;;;23.21;57.50;99650.16;5071271;28;20519;-91
2023/08/17 05:00:25;;;;;;;2.95;2.15;;;;;;;23.26;57.41;99622.09;5072334;28;20119;-91
2023/08/17 05:06:14;;;;;;;3.40;2.25;;;;;;;23.94;55.58;99672.09;5072093;28;20150;-90
2023/08/17 05:08:39;;;;;;;2.80;1.48;;;;;;;23.33;56.96;99621.56;5065646;28;20024;-89
2023/08/17 05:11:05;;;;;;;2.47;1.73;;;;;;;23.52;57.08;99631.91;5091864;28;20031;-90
2023/08/17 05:13:30;;;;;;;2.45;1.75;;;;;;;23.75;56.66;99630.28;5078296;28;20028;-89
2023/08/17 05:15:56;;;;;;;2.03;1.27;;;;;;;24.15;56.25;99655.38;5076868;28;20047;-92
2023/08/17 05:18:21;;;;;;;3.25;1.85;;;;;;;24.15;56.66;99650.00;5078278;28;20111;-92
2023/08/17 05:20:47;;;;;;;3.55;2.25;;;;;;;24.10;55.61;99643.09;5072793;28;20035;-90
2023/08/17 05:23:12;;;;;;;2.97;2.00;;;;;;;23.84;55.82;99601.00;5091501;28;20071;-89
2023/08/17 05:25:38;;;;;;;2.70;1.88;;;;;;;24.08;55.44;99628.88;5092157;28;20024;-89
2023/08/17 05:28:10;;;;;;;4.43;2.35;;;;;;;24.49;55.35;99643.84;5092063;28;20059;-89
2023/08/17 05:30:36;;;;;;;7.78;2.22;;;;;;;24.66;55.96;99649.88;5091987;28;20032;-89
2023/08/17 05:33:36;;;;;;;2.90;2.60;;;;;;;24.61;56.18;99676.31;5091632;28;20039;-89
2023/08/17 05:36:01;;;;;;;2.83;2.08;;;;;;;24.59;55.18;99659.38;5073718;28;20032;-91
2023/08/17 05:38:27;;;;;;;2.20;1.30;;;;;;;24.61;53.23;99652.06;5070783;28;20025;-91
2023/08/17 05:40:56;;;;;;;1.20;1.02;;;;;;;25.07;53.48;99659.41;5070031;28;20497;-90
2023/08/17 05:43:22;;;;;;;3.35;1.73;;;;;;;25.39;52.16;99658.78;5070281;28;20071;-91
2023/08/17 05:45:48;;;;;;;1.35;0.93;;;;;;;25.23;52.19;99626.69;5083788;28;20059;-91
2023/08/17 05:48:13;;;;;;;1.08;0.88;;;;;;;25.67;51.95;99672.81;5071173;28;20036;-90
2023/08/17 05:50:41;;;;;;;2.50;2.30;;;;;;;25.52;50.35;99651.44;5084476;28;20024;-90
2023/08/17 05:53:07;;;;;;;2.28;1.80;;;;;;;25.74;50.23;99641.66;5079841;28;20091;-88
2023/08/17 05:55:33;;;;;;;1.90;1.30;;;;;;;26.15;49.07;99626.72;5071772;28;20504;-91
2023/08/17 06:16:51;;;;;;;1.58;1.05;;;;;;;28.20;41.73;99646.41;5107428;27;20384;-86
2023/08/17 06:19:17;;;;;;;0.52;0.52;;;;;;;27.73;42.10;99644.19;5107906;28;20059;-92
2023/08/17 06:21:42;;;;;;;3.80;1.67;;;;;;;27.89;41.43;99611.16;5107159;28;20078;-90
2023/08/17 06:24:07;;;;;;;0.93;0.88;;;;;;;28.63;40.54;99650.69;5107410;28;20035;-90
2023/08/17 06:26:33;;;;;;;4.35;1.13;;;;;;;28.77;40.83;99643.16;5108873;28;20027;-91
2023/08/17 06:28:58;;;;;;;0.70;0.60;;;;;;;29.31;40.53;99633.59;5092308;28;20800;-91
2023/08/17 06:31:27;;;;;;;3.33;1.58;;;;;;;29.11;40.22;99624.56;5086289;28;20040;-88
2023/08/17 06:33:55;;;;;;;1.80;0.98;;;;;;;29.23;40.38;99666.06;5094632;28;20024;-89
2023/08/17 06:36:21;;;;;;;1.85;1.02;;;;;;;29.50;40.07;99642.69;5106981;28;20126;-90
2023/08/17 06:38:47;;;;;;;1.88;1.42;;;;;;;29.51;38.67;99658.00;5107834;28;20480;-94
2023/08/17 06:41:12;;;;;;;0.98;0.85;;;;;;;29.84;38.58;99642.22;5105772;28;20023;-90
2023/08/17 06:43:38;;;;;;;0.82;0.60;;;;;;;29.76;37.90;99635.59;5106332;28;20485;-90
2023/08/17 06:46:04;;;;;;;0.93;0.70;;;;;;;30.24;37.65;99643.75;5105541;28;20036;-88
2023/08/17 06:48:31;;;;;;;1.48;0.98;;;;;;;30.47;36.55;99630.63;5107175;28;20028;-89
2023/08/17 06:50:56;;;;;;;1.13;0.85;;;;;;;30.55;37.06;99668.81;5107276;28;20031;-87
2023/08/17 06:53:22;;;;;;;2.25;1.05;;;;;;;30.18;38.53;99656.97;5106679;28;20039;-89
2023/08/17 06:55:47;;;;;;;4.40;2.75;;;;;;;29.97;38.20;99643.59;5107134;28;20024;-88
2023/08/17 06:58:13;;;;;;;1.65;1.05;;;;;;;30.31;37.47;99644.88;5106970;28;20039;-89
2023/08/17 07:00:40;;;;;;;8.15;1.10;;;;;;;30.94;37.34;99645.91;5106512;28;20084;-92
2023/08/17 07:03:06;;;;;;;1.42;0.60;;;;;;;31.69;36.07;99662.75;5106327;28;20035;-88
2023/08/17 07:05:32;;;;;;;2.05;1.30;;;;;;;31.30;36.57;99644.03;5107633;28;20422;-87
2023/08/17 07:07:59;;;;;;;4.32;1.95;;;;;;;31.24;36.69;99615.56;5107391;28;20031;-86
2023/08/17 07:10:25;;;;;;;2.22;1.42;;;;;;;30.84;37.45;99619.59;5105886;28;20064;-85
2023/08/17 07:12:50;;;;;;;1.73;0.93;;;;;;;31.23;37.20;99637.50;5095977;28;20481;-87
2023/08/17 07:15:16;;;;;;;2.85;1.60;;;;;;;31.33;37.01;99642.88;5084814;28;20079;-85
2023/08/17 07:17:41;;;;;;;3.25;1.42;;;;;;;31.70;37.14;99641.78;5076023;28;20029;-87
2023/08/17 07:20:07;;;;;;;6.43;1.20;;;;;;;31.66;35.49;99613.16;5084544;28;20032;-87
2023/08/17 07:22:33;;;;;;;2.00;1.60;;;;;;;31.81;35.33;99637.91;5092283;28;20400;-86
2023/08/17 07:24:58;;;;;;;3.72;2.25;;;;;;;32.06;35.17;99612.50;5092579;28;20085;-87
2023/08/17 07:27:24;;;;;;;3.85;0.82;;;;;;;32.34;34.13;99633.28;5092289;28;20504;-87
2023/08/17 07:29:49;;;;;;;3.90;1.60;;;;;;;32.34;33.39;99647.75;5092853;28;20035;-86
2023/08/17 07:32:15;;;;;;;3.00;1.42;;;;;;;32.24;34.05;99622.47;5093111;28;20535;-86
2023/08/17 07:34:40;;;;;;;3.78;2.15;;;;;;;32.39;33.29;99617.25;5092734;28;20480;-86
2023/08/17 07:37:06;;;;;;;6.13;1.65;;;;;;;32.38;33.23;99623.72;5092527;28;20031;-86
2023/08/17 07:39:32;;;;;;;5.18;0.73;;;;;;;32.39;32.85;99625.44;5092633;28;20035;-87
2023/08/17 07:41:57;;;;;;;2.88;1.52;;;;;;;32.60;33.71;99628.56;5092231;28;20076;-87
2023/08/17 07:44:23;;;;;;;1.70;1.20;;;;;;;32.80;33.42;99650.13;5091998;28;20061;-87
2023/08/17 07:46:48;;;;;;;6.75;2.28;;;;;;;33.30;32.52;99619.09;5092211;28;20024;-87
2023/08/17 07:49:14;;;;;;;2.38;1.08;;;;;;;33.57;32.01;99635.28;5092247;28;20028;-87
2023/08/17 07:51:39;;;;;;;1.80;1.20;;;;;;;33.27;33.29;99635.00;5092159;28;20047;-87
2023/08/17 07:54:04;;;;;;;3.72;1.75;;;;;;;32.81;34.86;99616.31;5090182;28;20111;-87
2023/08/17 07:56:30;;;;;;;1.40;0.93;;;;;;;33.68;32.61;99619.38;5092036;28;20042;-88
2023/08/17 07:58:57;;;;;;;1.83;1.05;;;;;;;33.82;32.30;99633.41;5091964;28;20496;-87
2023/08/17 08:01:22;;;;;;;1.95;1.25;;;;;;;33.96;31.56;99631.81;5092335;28;20493;-86
2023/08/17 08:03:48;;;;;;;2.10;1.90;;;;;;;33.66;32.55;99612.38;5091518;28;20101;-87
2023/08/17 08:06:13;;;;;;;3.17;1.25;;;;;;;33.71;31.38;99616.34;5091796;28;20028;-86
2023/08/17 08:08:40;;;;;;;1.33;0.77;;;;;;;33.53;30.68;99612.94;5092365;28;20100;-86
2023/08/17 08:11:06;;;;;;;2.65;1.27;;;;;;;33.48;30.49;99604.41;5090522;28;20032;-88
2023/08/17 08:13:31;;;;;;;2.45;1.17;;;;;;;33.70;30.57;99620.06;5091912;28;20039;-84
2023/08/17 08:15:59;;;;;;;2.45;1.10;;;;;;;33.57;30.32;99622.50;5087192;28;20121;-86
2023/08/17 08:18:31;;;;;;;11.27;1.83;;;;;;;33.87;30.04;99623.63;5069728;28;20042;-88
2023/08/17 08:20:57;;;;;;;2.60;0.93;;;;;;;34.16;30.44;99588.47;5071521;28;20032;-84
2023/08/17 08:23:22;;;;;;;1.10;0.90;;;;;;;33.63;30.58;99591.72;5077692;28;20081;-86
2023/08/17 08:25:48;;;;;;;1.73;0.93;;;;;;;33.89;30.69;99576.94;5082941;28;20139;-85
2023/08/17 08:28:13;;;;;;;1.08;0.90;;;;;;;34.41;30.50;99583.75;5085199;28;20417;-88
2023/08/17 08:30:39;;;;;;;1.23;0.80;;;;;;;34.23;29.73;99593.06;5090572;28;20213;-87
2023/08/17 08:33:04;;;;;;;2.65;1.42;;;;;;;34.90;29.56;99616.31;5091083;28;20128;-87
2023/08/17 08:35:30;;;;;;;2.50;1.17;;;;;;;34.84;28.76;99558.66;5090967;28;20422;-88
2023/08/17 08:37:55;;;;;;;5.38;1.67;;;;;;;35.23;28.15;99571.31;5090843;28;20062;-84
2023/08/17 08:40:27;;;;;;;2.72;1.15;;;;;;;35.61;28.71;99587.78;5076959;28;20032;-86
2023/08/17 08:42:52;;;;;;;1.27;0.90;;;;;;;35.59;28.43;99578.84;5080051;28;20025;-87
2023/08/17 08:45:19;;;;;;;3.22;1.33;;;;;;;34.70;29.24;99601.38;5071434;28;20032;-84
2023/08/17 08:47:46;;;;;;;1.15;0.80;;;;;;;34.58;29.42;99570.81;5070152;28;20024;-86
2023/08/17 08:50:18;;;;;;;0.50;0.50;;;;;;;35.12;29.33;99589.91;5070845;28;20029;-88
2023/08/17 08:52:52;;;;;;;0.88;0.85;;;;;;;34.88;30.35;99568.19;5091063;28;20036;-86
2023/08/17 08:55:18;;;;;;;1.33;1.15;;;;;;;35.00;29.70;99576.84;5086692;28;20101;-90
2023/08/17 08:57:46;;;;;;;3.03;1.75;;;;;;;35.21;29.28;99559.69;5083189;28;20122;-91
2023/08/17 09:00:14;;;;;;;1.55;0.98;;;;;;;35.39;29.43;99579.44;5075621;28;20055;-91
2023/08/17 09:02:42;;;;;;;2.20;1.27;;;;;;;35.42;29.34;99573.56;5072880;28;20094;-93
2023/08/17 09:05:10;;;;;;;6.13;2.45;;;;;;;35.61;28.13;99571.31;5070399;28;20024;-86
2023/08/17 09:07:38;;;;;;;2.78;1.40;;;;;;;35.32;28.90;99548.31;5070442;28;20036;-88
2023/08/17 09:10:04;;;;;;;3.97;2.25;;;;;;;35.59;28.53;99559.66;5090517;28;20028;-89
2023/08/17 09:12:30;;;;;;;8.10;1.33;;;;;;;35.20;28.16;99538.81;5087655;28;20184;-88
2023/08/17 09:14:56;;;;;;;1.15;0.88;;;;;;;35.49;27.80;99554.47;5070076;28;20052;-86
2023/08/17 09:17:26;;;;;;;1.65;1.10;;;;;;;34.50;29.14;99573.59;5070549;28;20497;-86
2023/08/17 09:19:51;;;;;;;1.65;1.00;;;;;;;34.66;29.58;99543.34;5070545;28;20036;-89
2023/08/17 09:22:24;;;;;;;3.33;1.83;;;;;;;35.25;28.66;99539.09;5068719;28;20036;-87
2023/08/17 09:24:50;;;;;;;5.82;1.55;;;;;;;35.71;28.11;99568.28;5070414;28;21910;-92
2023/08/17 09:27:16;;;;;;;1.75;1.40;;;;;;;35.68;28.08;99559.41;5070904;28;20021;-88
2023/08/17 09:29:48;;;;;;;1.00;0.80;;;;;;;35.71;27.85;99552.66;5080741;28;20161;-89
2023/08/17 09:32:16;;;;;;;4.55;1.05;;;;;;;35.48;28.02;99536.28;5077006;28;20426;-88
2023/08/17 09:34:43;;;;;;;1.52;1.40;;;;;;;35.55;28.24;99531.78;5090361;28;20051;-89
2023/08/17 09:37:09;;;;;;;3.13;1.55;;;;;;;35.39;28.71;99557.50;5090625;28;20020;-88
2023/08/17 09:39:34;;;;;;;2.25;1.17;;;;;;;34.92;29.04;99518.34;5086621;28;20456;-88
2023/08/17 09:42:00;;;;;;;4.57;0.90;;;;;;;35.41;28.34;99573.75;5090469;28;20119;-90
2023/08/17 09:44:26;;;;;;;2.20;1.45;;;;;;;35.54;27.33;99546.50;5091369;28;20028;-92
2023/08/17 09:46:56;;;;;;;0.77;0.65;;;;;;;35.97;27.70;99548.59;5087801;28;20032;-93
2023/08/17 09:49:24;;;;;;;6.53;1.13;;;;;;;36.49;26.81;99555.78;5071727;28;20044;-93
2023/08/17 09:51:52;;;;;;;0.70;0.50;;;;;;;35.56;27.91;99551.81;5070205;28;20068;-92
2023/08/17 09:54:23;;;;;;;1.35;0.90;;;;;;;35.17;27.82;99563.84;5070700;28;20390;-94
2023/08/17 09:57:42;;;;;;;1.02;0.85;;;;;;;35.35;28.12;99552.56;5071505;28;20056;-93
2023/08/17 10:00:08;;;;;;;1.25;0.80;;;;;;;34.70;28.42;99506.34;5070340;28;20029;-90
2023/08/17 10:02:34;;;;;;;5.47;1.52;;;;;;;34.69;28.67;99493.69;5070121;28;20068;-91
2023/08/17 10:05:03;;;;;;;2.75;1.23;;;;;;;34.95;26.96;99486.97;5070670;28;20064;-91
2023/08/17 10:07:31;;;;;;;3.35;1.27;;;;;;;35.32;26.96;99534.59;5070543;28;20024;-91
2023/08/17 10:10:05;;;;;;;0.80;0.60;;;;;;;35.21;27.07;99470.09;5070443;28;20107;-95
2023/08/17 10:12:45;;;;;;;1.20;0.97;;;;;;;35.44;26.99;99524.88;5083417;28;20043;-96
2023/08/17 10:15:18;;;;;;;1.00;0.57;;;;;;;34.70;27.17;99489.06;5073921;28;20052;-94
2023/08/17 10:17:58;;;;;;;0.82;0.73;;;;;;;34.69;28.86;99529.28;5091578;28;20043;-93
2023/08/17 10:20:30;;;;;;;2.17;0.98;;;;;;;34.78;28.01;99473.44;5090308;28;20181;-90
2023/08/17 10:23:12;;;;;;;0.80;0.47;;;;;;;34.49;28.98;99484.28;5090446;28;20035;-91
2023/08/17 10:25:42;;;;;;;1.40;1.25;;;;;;;34.67;28.82;99483.97;5097793;28;20028;-95
2023/08/17 10:28:24;;;;;;;1.08;0.85;;;;;;;34.35;27.06;99437.50;5093620;28;20032;-96
2023/08/17 10:30:51;;;;;;;1.08;0.80;;;;;;;34.79;26.63;99482.53;5086346;28;20086;-96
2023/08/17 10:33:18;;;;;;;1.48;0.82;;;;;;;35.30;26.20;99506.53;5077714;28;20481;-92
2023/08/17 10:36:07;;;;;;;1.90;0.65;;;;;;;35.34;25.96;99505.09;5076058;28;20468;-89
2023/08/17 10:39:19;;;;;;;1.13;0.85;;;;;;;35.15;25.70;99509.22;5070548;28;20028;-94
2023/08/17 10:41:50;;;;;;;7.88;0.98;;;;;;;34.84;26.22;99471.84;5070781;28;20032;-94
2023/08/17 10:44:41;;;;;;;1.60;1.15;;;;;;;35.03;27.08;99484.16;5072981;28;20025;-88
2023/08/17 10:47:26;;;;;;;0.70;0.50;;;;;;;35.37;26.56;99473.72;5077545;28;20119;-95
2023/08/17 10:49:55;;;;;;;1.02;0.80;;;;;;;35.50;26.46;99463.78;5070429;28;20025;-94
2023/08/17 10:52:30;;;;;;;1.35;0.90;;;;;;;34.79;25.80;99430.47;5085805;28;20114;-94
2023/08/17 10:54:56;;;;;;;2.75;0.93;;;;;;;35.11;25.33;99431.16;5079601;28;20050;-91
2023/08/17 10:57:32;;;;;;;3.85;1.60;;;;;;;35.24;25.39;99463.41;5095735;28;20089;-95
2023/08/17 11:00:13;;;;;;;0.82;0.63;;;;;;;35.37;26.62;99482.78;5080935;28;20025;-90
2023/08/17 11:02:43;;;;;;;2.60;0.98;;;;;;;35.45;25.09;99447.06;5075125;28;20033;-96
2023/08/17 11:05:12;;;;;;;1.27;0.80;;;;;;;35.60;24.88;99452.50;5086370;28;20035;-92
2023/08/17 11:07:51;;;;;;;2.58;0.93;;;;;;;35.13;24.85;99438.16;5073914;28;20035;-96
2023/08/17 11:11:13;;;;;;;0.55;0.55;;;;;;;35.64;25.12;99467.56;5074668;28;20033;-95
2023/08/17 11:13:41;;;;;;;1.33;0.93;;;;;;;35.42;24.74;99463.91;5091650;28;20477;-92
2023/08/17 11:16:08;;;;;;;1.67;0.60;;;;;;;35.06;24.51;99419.91;5073750;28;20056;-93
2023/08/17 11:18:34;;;;;;;2.75;0.90;;;;;;;34.94;25.22;99417.66;5072760;28;20044;-95
2023/08/17 11:21:03;;;;;;;1.80;0.80;;;;;;;35.33;25.13;99443.09;5073024;28;20029;-95
2023/08/17 11:23:32;;;;;;;2.65;1.73;;;;;;;35.00;23.89;99428.88;5090797;28;20491;-96
2023/08/17 11:25:57;;;;;;;0.65;0.57;;;;;;;34.75;23.67;99385.28;5094134;28;20028;-95
2023/08/17 11:28:24;;;;;;;1.90;0.80;;;;;;;34.83;23.77;99373.41;5093247;28;20030;-96
2023/08/17 11:31:08;;;;;;;1.48;0.60;;;;;;;34.86;23.53;99400.44;5093913;28;20028;-96
2023/08/17 11:33:34;;;;;;;;;;;;;;;35.30;23.05;99441.59;5078959;28;20039;-96
2023/08/17 11:36:05;;;;;;;1.95;1.00;;;;;;;35.43;23.17;99424.44;5097443;28;20002;-94
2023/08/17 11:38:38;;;;;;;16.85;1.02;;;;;;;35.48;23.91;99399.19;5097322;28;20032;-95
2023/08/17 11:41:05;;;;;;;1.00;0.60;;;;;;;35.22;22.21;99407.91;5094424;28;20058;-93
2023/08/17 11:43:32;;;;;;;0.57;0.50;;;;;;;35.50;22.54;99402.63;5093055;28;20103;-96
2023/08/17 11:45:57;;;;;;;1.20;0.93;;;;;;;35.96;22.58;99428.91;5095014;28;20412;-95
2023/08/17 11:48:25;;;;;;;3.85;1.85;;;;;;;35.87;22.16;99403.50;5094039;28;20032;-96
2023/08/17 11:50:57;;;;;;;4.53;0.75;;;;;;;35.53;22.64;99395.88;5093531;28;20120;-95
2023/08/17 11:53:23;;;;;;;2.05;0.80;;;;;;;35.02;22.71;99352.81;5093735;28;20119;-94
2023/08/17 11:55:51;;;;;;;4.13;1.80;;;;;;;35.67;23.26;99395.00;5093774;28;20118;-96
2023/08/17 11:58:17;;;;;;;11.63;1.38;;;;;;;35.37;22.46;99383.25;5096372;28;20035;-95
2023/08/17 12:04:20;;;;;;;1.27;0.50;;;;;;;35.77;22.97;99384.59;5095886;28;20051;-95